sensor_id;sensor_type;location;lat;lon;timestamp;temperature;humidity
40534;DHT22;26233;51.894;10.192;2023-05-07T00:01:57;14.30;43.50
40534;DHT22;26233;51.894;10.192;2023-05-07T00:04:24;14.30;43.40
40534;DHT22;26233;51.894;10.192;2023-05-07T00:06:51;14.20;43.30
40534;DHT22;26233;51.894;10.192;2023-05-07T00:09:20;14.20;43.40
40534;DHT22;26233;51.894;10.192;2023-05-07T00:11:47;14.30;43.70
40534;DHT22;26233;51.894;10.192;2023-05-07T00:14:14;14.20;43.50
40534;DHT22;26233;51.894;10.192;2023-05-07T00:16:41;14.20;43.60
40534;DHT22;26233;51.894;10.192;2023-05-07T00:19:08;14.20;43.60
40534;DHT22;26233;51.894;10.192;2023-05-07T00:21:35;14.20;43.70
40534;DHT22;26233;51.894;10.192;2023-05-07T00:24:02;14.20;43.70
40534;DHT22;26233;51.894;10.192;2023-05-07T00:26:31;14.10;43.80
40534;DHT22;26233;51.894;10.192;2023-05-07T00:28:58;14.10;43.70
40534;DHT22;26233;51.894;10.192;2023-05-07T00:31:25;14.10;43.70
40534;DHT22;26233;51.894;10.192;2023-05-07T00:33:52;14.00;43.60
40534;DHT22;26233;51.894;10.192;2023-05-07T00:36:19;14.00;43.60
40534;DHT22;26233;51.894;10.192;2023-05-07T00:38:46;14.00;43.70
40534;DHT22;26233;51.894;10.192;2023-05-07T00:41:13;14.00;43.90
40534;DHT22;26233;51.894;10.192;2023-05-07T00:43:42;13.90;43.90
40534;DHT22;26233;51.894;10.192;2023-05-07T00:46:09;13.90;44.00
40534;DHT22;26233;51.894;10.192;2023-05-07T00:48:37;13.90;44.20
40534;DHT22;26233;51.894;10.192;2023-05-07T00:51:04;13.90;44.00
40534;DHT22;26233;51.894;10.192;2023-05-07T00:53:33;13.90;44.00
40534;DHT22;26233;51.894;10.192;2023-05-07T00:56:01;13.90;43.90
40534;DHT22;26233;51.894;10.192;2023-05-07T00:58:28;13.80;43.90
40534;DHT22;26233;51.894;10.192;2023-05-07T01:00:57;13.90;43.90
40534;DHT22;26233;51.894;10.192;2023-05-07T01:03:24;13.70;43.80
40534;DHT22;26233;51.894;10.192;2023-05-07T01:05:53;13.80;44.60
40534;DHT22;26233;51.894;10.192;2023-05-07T01:08:20;13.80;44.20
40534;DHT22;26233;51.894;10.192;2023-05-07T01:10:50;13.80;44.30
40534;DHT22;26233;51.894;10.192;2023-05-07T01:13:18;13.80;44.30
40534;DHT22;26233;51.894;10.192;2023-05-07T01:15:45;13.80;44.30
40534;DHT22;26233;51.894;10.192;2023-05-07T01:18:14;13.80;44.40
40534;DHT22;26233;51.894;10.192;2023-05-07T01:20:42;13.80;44.50
40534;DHT22;26233;51.894;10.192;2023-05-07T01:23:11;13.80;44.40
40534;DHT22;26233;51.894;10.192;2023-05-07T01:25:38;13.80;44.50
40534;DHT22;26233;51.894;10.192;2023-05-07T01:28:05;13.80;44.50
40534;DHT22;26233;51.894;10.192;2023-05-07T01:30:33;13.80;44.50
40534;DHT22;26233;51.894;10.192;2023-05-07T01:33:06;13.80;44.50
40534;DHT22;26233;51.894;10.192;2023-05-07T01:35:39;13.80;44.60
40534;DHT22;26233;51.894;10.192;2023-05-07T01:38:09;13.80;44.50
40534;DHT22;26233;51.894;10.192;2023-05-07T01:40:36;13.70;44.50
40534;DHT22;26233;51.894;10.192;2023-05-07T01:43:05;13.80;44.60
40534;DHT22;26233;51.894;10.192;2023-05-07T01:45:32;13.70;44.70
40534;DHT22;26233;51.894;10.192;2023-05-07T01:48:02;13.70;44.80
40534;DHT22;26233;51.894;10.192;2023-05-07T01:50:30;13.80;44.90
40534;DHT22;26233;51.894;10.192;2023-05-07T01:52:58;13.80;44.70
40534;DHT22;26233;51.894;10.192;2023-05-07T01:55:26;13.80;44.60
40534;DHT22;26233;51.894;10.192;2023-05-07T01:57:54;13.70;44.50
40534;DHT22;26233;51.894;10.192;2023-05-07T02:00:21;13.70;44.50
40534;DHT22;26233;51.894;10.192;2023-05-07T02:02:49;13.70;44.40
40534;DHT22;26233;51.894;10.192;2023-05-07T02:05:17;13.70;44.50
40534;DHT22;26233;51.894;10.192;2023-05-07T02:07:47;13.60;44.30
40534;DHT22;26233;51.894;10.192;2023-05-07T02:10:14;13.60;45.00
40534;DHT22;26233;51.894;10.192;2023-05-07T02:12:42;13.60;44.50
40534;DHT22;26233;51.894;10.192;2023-05-07T02:15:10;13.50;44.60
40534;DHT22;26233;51.894;10.192;2023-05-07T02:17:39;13.50;44.70
40534;DHT22;26233;51.894;10.192;2023-05-07T02:20:25;13.50;44.90
40534;DHT22;26233;51.894;10.192;2023-05-07T02:22:52;13.50;44.90
40534;DHT22;26233;51.894;10.192;2023-05-07T02:25:19;13.50;44.80
40534;DHT22;26233;51.894;10.192;2023-05-07T02:27:48;13.40;44.90
40534;DHT22;26233;51.894;10.192;2023-05-07T02:30:15;13.40;44.90
40534;DHT22;26233;51.894;10.192;2023-05-07T02:32:42;13.50;45.00
40534;DHT22;26233;51.894;10.192;2023-05-07T02:35:09;13.50;45.00
40534;DHT22;26233;51.894;10.192;2023-05-07T02:37:36;13.50;45.10
40534;DHT22;26233;51.894;10.192;2023-05-07T02:40:05;13.50;45.20
40534;DHT22;26233;51.894;10.192;2023-05-07T02:42:32;13.50;45.20
40534;DHT22;26233;51.894;10.192;2023-05-07T02:45:01;13.50;45.20
40534;DHT22;26233;51.894;10.192;2023-05-07T02:47:28;13.50;45.20
40534;DHT22;26233;51.894;10.192;2023-05-07T02:49:55;13.50;45.30
40534;DHT22;26233;51.894;10.192;2023-05-07T02:52:22;13.50;45.20
40534;DHT22;26233;51.894;10.192;2023-05-07T02:54:49;13.60;45.30
40534;DHT22;26233;51.894;10.192;2023-05-07T02:57:16;13.60;45.30
40534;DHT22;26233;51.894;10.192;2023-05-07T02:59:44;13.60;45.30
40534;DHT22;26233;51.894;10.192;2023-05-07T03:02:12;13.60;45.20
40534;DHT22;26233;51.894;10.192;2023-05-07T03:04:40;13.60;45.10
40534;DHT22;26233;51.894;10.192;2023-05-07T03:07:07;13.60;45.10
40534;DHT22;26233;51.894;10.192;2023-05-07T03:09:34;13.60;45.00
40534;DHT22;26233;51.894;10.192;2023-05-07T03:12:01;13.50;45.00
40534;DHT22;26233;51.894;10.192;2023-05-07T03:14:28;13.50;45.00
40534;DHT22;26233;51.894;10.192;2023-05-07T03:16:55;13.50;45.00
40534;DHT22;26233;51.894;10.192;2023-05-07T03:19:24;13.40;45.10
40534;DHT22;26233;51.894;10.192;2023-05-07T03:21:51;13.40;45.10
40534;DHT22;26233;51.894;10.192;2023-05-07T03:24:18;13.40;45.20
40534;DHT22;26233;51.894;10.192;2023-05-07T03:26:45;13.40;45.20
40534;DHT22;26233;51.894;10.192;2023-05-07T03:29:12;13.40;45.20
40534;DHT22;26233;51.894;10.192;2023-05-07T03:31:39;13.40;45.20
40534;DHT22;26233;51.894;10.192;2023-05-07T03:34:06;13.40;45.20
40534;DHT22;26233;51.894;10.192;2023-05-07T03:36:34;13.30;45.10
40534;DHT22;26233;51.894;10.192;2023-05-07T03:39:03;13.30;45.10
40534;DHT22;26233;51.894;10.192;2023-05-07T03:41:30;13.30;45.10
40534;DHT22;26233;51.894;10.192;2023-05-07T03:43:57;13.30;45.10
40534;DHT22;26233;51.894;10.192;2023-05-07T03:46:24;13.20;45.00
40534;DHT22;26233;51.894;10.192;2023-05-07T03:48:51;13.20;45.00
40534;DHT22;26233;51.894;10.192;2023-05-07T03:51:18;13.20;45.20
40534;DHT22;26233;51.894;10.192;2023-05-07T03:53:47;13.20;45.20
40534;DHT22;26233;51.894;10.192;2023-05-07T03:56:14;13.20;45.10
40534;DHT22;26233;51.894;10.192;2023-05-07T03:58:41;13.20;45.20
40534;DHT22;26233;51.894;10.192;2023-05-07T04:01:08;13.10;45.20
40534;DHT22;26233;51.894;10.192;2023-05-07T04:03:35;13.10;45.40
40534;DHT22;26233;51.894;10.192;2023-05-07T04:06:02;13.10;45.40
40534;DHT22;26233;51.894;10.192;2023-05-07T04:08:29;13.10;45.40
40534;DHT22;26233;51.894;10.192;2023-05-07T04:10:58;13.20;45.40
40534;DHT22;26233;51.894;10.192;2023-05-07T04:13:25;13.10;45.30
40534;DHT22;26233;51.894;10.192;2023-05-07T04:15:53;13.10;45.20
40534;DHT22;26233;51.894;10.192;2023-05-07T04:18:21;13.10;45.20
40534;DHT22;26233;51.894;10.192;2023-05-07T04:20:48;13.10;45.20
40534;DHT22;26233;51.894;10.192;2023-05-07T04:23:15;13.00;45.10
40534;DHT22;26233;51.894;10.192;2023-05-07T04:25:42;13.10;45.30
40534;DHT22;26233;51.894;10.192;2023-05-07T04:28:13;13.00;45.40
40534;DHT22;26233;51.894;10.192;2023-05-07T04:30:40;13.10;45.60
40534;DHT22;26233;51.894;10.192;2023-05-07T04:33:07;13.00;45.80
40534;DHT22;26233;51.894;10.192;2023-05-07T04:35:35;13.10;45.60
40534;DHT22;26233;51.894;10.192;2023-05-07T04:38:02;13.10;45.70
40534;DHT22;26233;51.894;10.192;2023-05-07T04:40:29;13.10;45.60
40534;DHT22;26233;51.894;10.192;2023-05-07T04:42:56;13.10;45.60
40534;DHT22;26233;51.894;10.192;2023-05-07T04:45:24;13.10;45.60
40534;DHT22;26233;51.894;10.192;2023-05-07T04:47:51;13.20;45.70
40534;DHT22;26233;51.894;10.192;2023-05-07T04:50:18;13.20;45.70
40534;DHT22;26233;51.894;10.192;2023-05-07T04:52:45;13.20;45.70
40534;DHT22;26233;51.894;10.192;2023-05-07T04:55:12;13.20;45.70
40534;DHT22;26233;51.894;10.192;2023-05-07T04:57:40;13.30;45.90
40534;DHT22;26233;51.894;10.192;2023-05-07T05:00:08;13.30;45.90
40534;DHT22;26233;51.894;10.192;2023-05-07T05:02:37;13.30;45.90
40534;DHT22;26233;51.894;10.192;2023-05-07T05:05:04;13.40;46.10
40534;DHT22;26233;51.894;10.192;2023-05-07T05:07:32;13.50;46.20
40534;DHT22;26233;51.894;10.192;2023-05-07T05:09:59;13.50;46.20
40534;DHT22;26233;51.894;10.192;2023-05-07T05:12:26;13.50;46.20
40534;DHT22;26233;51.894;10.192;2023-05-07T05:14:53;13.60;46.20
40534;DHT22;26233;51.894;10.192;2023-05-07T05:17:20;13.60;46.10
40534;DHT22;26233;51.894;10.192;2023-05-07T05:19:49;13.70;46.20
40534;DHT22;26233;51.894;10.192;2023-05-07T05:22:16;13.80;46.30
40534;DHT22;26233;51.894;10.192;2023-05-07T05:24:43;13.80;46.20
40534;DHT22;26233;51.894;10.192;2023-05-07T05:27:10;13.80;46.20
40534;DHT22;26233;51.894;10.192;2023-05-07T05:29:37;13.90;46.20
40534;DHT22;26233;51.894;10.192;2023-05-07T05:32:04;13.90;46.10
40534;DHT22;26233;51.894;10.192;2023-05-07T05:34:31;13.90;46.10
40534;DHT22;26233;51.894;10.192;2023-05-07T05:37:00;14.00;46.10
40534;DHT22;26233;51.894;10.192;2023-05-07T05:39:27;14.00;46.10
40534;DHT22;26233;51.894;10.192;2023-05-07T05:41:54;14.00;46.00
40534;DHT22;26233;51.894;10.192;2023-05-07T05:44:21;14.00;46.00
40534;DHT22;26233;51.894;10.192;2023-05-07T05:46:48;14.10;46.40
40534;DHT22;26233;51.894;10.192;2023-05-07T05:49:15;14.10;46.00
40534;DHT22;26233;51.894;10.192;2023-05-07T05:51:43;14.10;46.00
40534;DHT22;26233;51.894;10.192;2023-05-07T05:54:11;14.10;46.00
40534;DHT22;26233;51.894;10.192;2023-05-07T05:56:41;14.10;45.90
40534;DHT22;26233;51.894;10.192;2023-05-07T05:59:08;14.10;45.90
40534;DHT22;26233;51.894;10.192;2023-05-07T06:01:35;14.10;45.90
40534;DHT22;26233;51.894;10.192;2023-05-07T06:04:02;14.10;46.00
40534;DHT22;26233;51.894;10.192;2023-05-07T06:06:30;14.10;46.00
40534;DHT22;26233;51.894;10.192;2023-05-07T06:08:57;14.10;46.00
40534;DHT22;26233;51.894;10.192;2023-05-07T06:11:26;14.10;46.10
40534;DHT22;26233;51.894;10.192;2023-05-07T06:13:53;14.10;46.10
40534;DHT22;26233;51.894;10.192;2023-05-07T06:16:20;14.10;46.20
40534;DHT22;26233;51.894;10.192;2023-05-07T06:18:47;14.10;46.20
40534;DHT22;26233;51.894;10.192;2023-05-07T06:21:14;14.10;46.10
40534;DHT22;26233;51.894;10.192;2023-05-07T06:23:41;14.10;46.00
40534;DHT22;26233;51.894;10.192;2023-05-07T06:26:08;14.20;46.00
40534;DHT22;26233;51.894;10.192;2023-05-07T06:28:36;14.20;46.10
40534;DHT22;26233;51.894;10.192;2023-05-07T06:31:13;14.20;46.70
40534;DHT22;26233;51.894;10.192;2023-05-07T06:33:41;14.20;46.20
40534;DHT22;26233;51.894;10.192;2023-05-07T06:36:08;14.20;46.10
40534;DHT22;26233;51.894;10.192;2023-05-07T06:38:35;14.20;46.00
40534;DHT22;26233;51.894;10.192;2023-05-07T06:41:02;14.20;46.00
40534;DHT22;26233;51.894;10.192;2023-05-07T06:43:29;14.20;46.00
40534;DHT22;26233;51.894;10.192;2023-05-07T06:45:57;14.20;46.00
40534;DHT22;26233;51.894;10.192;2023-05-07T06:48:24;14.10;45.90
40534;DHT22;26233;51.894;10.192;2023-05-07T06:50:51;14.10;46.00
40534;DHT22;26233;51.894;10.192;2023-05-07T06:53:20;14.10;46.00
40534;DHT22;26233;51.894;10.192;2023-05-07T06:55:47;14.10;46.10
40534;DHT22;26233;51.894;10.192;2023-05-07T06:58:15;14.10;46.10
40534;DHT22;26233;51.894;10.192;2023-05-07T07:00:42;14.10;46.10
40534;DHT22;26233;51.894;10.192;2023-05-07T07:03:10;14.20;46.20
40534;DHT22;26233;51.894;10.192;2023-05-07T07:05:37;14.10;46.00
40534;DHT22;26233;51.894;10.192;2023-05-07T07:08:04;14.10;45.90
40534;DHT22;26233;51.894;10.192;2023-05-07T07:10:31;14.10;45.80
40534;DHT22;26233;51.894;10.192;2023-05-07T07:12:58;14.10;45.80
40534;DHT22;26233;51.894;10.192;2023-05-07T07:15:26;14.00;45.80
40534;DHT22;26233;51.894;10.192;2023-05-07T07:17:53;14.00;45.80
40534;DHT22;26233;51.894;10.192;2023-05-07T07:20:21;14.00;45.80
40534;DHT22;26233;51.894;10.192;2023-05-07T07:22:48;13.90;45.70
40534;DHT22;26233;51.894;10.192;2023-05-07T07:25:16;13.90;45.80
40534;DHT22;26233;51.894;10.192;2023-05-07T07:27:43;13.90;45.90
40534;DHT22;26233;51.894;10.192;2023-05-07T07:30:10;13.90;46.00
40534;DHT22;26233;51.894;10.192;2023-05-07T07:32:37;13.90;46.00
40534;DHT22;26233;51.894;10.192;2023-05-07T07:35:05;13.90;46.10
40534;DHT22;26233;51.894;10.192;2023-05-07T07:37:34;13.90;46.10
40534;DHT22;26233;51.894;10.192;2023-05-07T07:40:02;13.90;46.60
40534;DHT22;26233;51.894;10.192;2023-05-07T07:42:29;13.90;46.10
40534;DHT22;26233;51.894;10.192;2023-05-07T07:44:56;13.90;46.10
40534;DHT22;26233;51.894;10.192;2023-05-07T07:47:23;13.90;46.10
40534;DHT22;26233;51.894;10.192;2023-05-07T07:49:50;13.90;46.10
40534;DHT22;26233;51.894;10.192;2023-05-07T07:52:18;13.90;46.20
40534;DHT22;26233;51.894;10.192;2023-05-07T07:54:47;14.00;46.30
40534;DHT22;26233;51.894;10.192;2023-05-07T07:57:14;14.00;46.30
40534;DHT22;26233;51.894;10.192;2023-05-07T07:59:41;14.00;46.20
40534;DHT22;26233;51.894;10.192;2023-05-07T08:02:08;14.10;46.40
40534;DHT22;26233;51.894;10.192;2023-05-07T08:04:35;14.10;46.20
40534;DHT22;26233;51.894;10.192;2023-05-07T08:07:03;14.10;46.20
40534;DHT22;26233;51.894;10.192;2023-05-07T08:09:30;14.10;46.20
40534;DHT22;26233;51.894;10.192;2023-05-07T08:11:58;14.10;46.20
40534;DHT22;26233;51.894;10.192;2023-05-07T08:14:26;14.20;46.30
40534;DHT22;26233;51.894;10.192;2023-05-07T08:16:54;14.20;46.30
40534;DHT22;26233;51.894;10.192;2023-05-07T08:19:21;14.20;46.30
40534;DHT22;26233;51.894;10.192;2023-05-07T08:21:48;14.30;46.40
40534;DHT22;26233;51.894;10.192;2023-05-07T08:24:16;14.30;46.40
40534;DHT22;26233;51.894;10.192;2023-05-07T08:26:43;14.30;46.40
40534;DHT22;26233;51.894;10.192;2023-05-07T08:29:12;14.40;46.40
40534;DHT22;26233;51.894;10.192;2023-05-07T08:31:39;14.40;46.40
40534;DHT22;26233;51.894;10.192;2023-05-07T08:34:06;14.40;46.40
40534;DHT22;26233;51.894;10.192;2023-05-07T08:36:33;14.50;46.40
40534;DHT22;26233;51.894;10.192;2023-05-07T08:39:00;14.50;46.40
40534;DHT22;26233;51.894;10.192;2023-05-07T08:41:28;14.50;46.30
40534;DHT22;26233;51.894;10.192;2023-05-07T08:43:58;14.60;46.40
40534;DHT22;26233;51.894;10.192;2023-05-07T08:46:31;14.70;46.50
40534;DHT22;26233;51.894;10.192;2023-05-07T08:48:58;14.60;46.40
40534;DHT22;26233;51.894;10.192;2023-05-07T08:51:25;14.70;46.40
40534;DHT22;26233;51.894;10.192;2023-05-07T08:53:52;14.70;46.30
40534;DHT22;26233;51.894;10.192;2023-05-07T08:56:19;14.80;46.40
40534;DHT22;26233;51.894;10.192;2023-05-07T08:58:47;14.80;46.40
40534;DHT22;26233;51.894;10.192;2023-05-07T09:01:15;14.80;46.40
40534;DHT22;26233;51.894;10.192;2023-05-07T09:03:46;14.80;46.30
40534;DHT22;26233;51.894;10.192;2023-05-07T09:06:13;14.90;46.30
40534;DHT22;26233;51.894;10.192;2023-05-07T09:08:41;14.90;46.40
40534;DHT22;26233;51.894;10.192;2023-05-07T09:11:16;14.90;46.50
40534;DHT22;26233;51.894;10.192;2023-05-07T09:13:43;15.00;46.60
40534;DHT22;26233;51.894;10.192;2023-05-07T09:16:11;15.00;46.60
40534;DHT22;26233;51.894;10.192;2023-05-07T09:18:42;15.10;47.20
40534;DHT22;26233;51.894;10.192;2023-05-07T09:21:15;15.10;46.50
40534;DHT22;26233;51.894;10.192;2023-05-07T09:23:42;15.20;46.50
40534;DHT22;26233;51.894;10.192;2023-05-07T09:26:09;15.20;46.40
40534;DHT22;26233;51.894;10.192;2023-05-07T09:28:40;15.30;46.30
40534;DHT22;26233;51.894;10.192;2023-05-07T09:31:09;15.30;46.20
40534;DHT22;26233;51.894;10.192;2023-05-07T09:33:37;15.30;46.20
40534;DHT22;26233;51.894;10.192;2023-05-07T09:36:05;15.30;46.10
40534;DHT22;26233;51.894;10.192;2023-05-07T09:38:36;15.30;46.00
40534;DHT22;26233;51.894;10.192;2023-05-07T09:41:05;15.30;46.00
40534;DHT22;26233;51.894;10.192;2023-05-07T09:43:35;15.30;46.00
40534;DHT22;26233;51.894;10.192;2023-05-07T09:46:13;15.30;46.00
40534;DHT22;26233;51.894;10.192;2023-05-07T09:48:43;15.30;46.00
40534;DHT22;26233;51.894;10.192;2023-05-07T09:51:22;15.30;46.10
40534;DHT22;26233;51.894;10.192;2023-05-07T09:53:54;15.40;46.20
40534;DHT22;26233;51.894;10.192;2023-05-07T09:56:23;15.40;46.20
40534;DHT22;26233;51.894;10.192;2023-05-07T09:58:52;15.50;46.20
40534;DHT22;26233;51.894;10.192;2023-05-07T10:01:21;15.50;46.20
40534;DHT22;26233;51.894;10.192;2023-05-07T10:03:49;15.60;46.30
40534;DHT22;26233;51.894;10.192;2023-05-07T10:06:18;15.60;46.20
40534;DHT22;26233;51.894;10.192;2023-05-07T10:08:46;15.70;46.20
40534;DHT22;26233;51.894;10.192;2023-05-07T10:11:16;15.70;46.20
40534;DHT22;26233;51.894;10.192;2023-05-07T10:13:44;15.90;46.30
40534;DHT22;26233;51.894;10.192;2023-05-07T10:16:13;15.80;46.30
40534;DHT22;26233;51.894;10.192;2023-05-07T10:18:41;15.90;46.40
40534;DHT22;26233;51.894;10.192;2023-05-07T10:21:11;15.90;46.20
40534;DHT22;26233;51.894;10.192;2023-05-07T10:23:45;15.90;46.20
40534;DHT22;26233;51.894;10.192;2023-05-07T10:26:16;16.00;46.10
40534;DHT22;26233;51.894;10.192;2023-05-07T10:28:46;16.00;46.00
40534;DHT22;26233;51.894;10.192;2023-05-07T10:31:33;16.00;45.90
40534;DHT22;26233;51.894;10.192;2023-05-07T10:34:08;16.00;45.90
40534;DHT22;26233;51.894;10.192;2023-05-07T10:36:37;16.00;45.90
40534;DHT22;26233;51.894;10.192;2023-05-07T10:39:05;16.10;46.10
40534;DHT22;26233;51.894;10.192;2023-05-07T10:41:34;16.10;46.00
40534;DHT22;26233;51.894;10.192;2023-05-07T10:44:02;16.10;46.00
40534;DHT22;26233;51.894;10.192;2023-05-07T10:46:30;16.10;46.10
40534;DHT22;26233;51.894;10.192;2023-05-07T10:49:09;16.20;46.20
40534;DHT22;26233;51.894;10.192;2023-05-07T10:51:38;16.30;46.30
40534;DHT22;26233;51.894;10.192;2023-05-07T10:54:22;16.30;46.40
40534;DHT22;26233;51.894;10.192;2023-05-07T10:56:51;16.40;46.40
40534;DHT22;26233;51.894;10.192;2023-05-07T10:59:35;16.60;46.60
40534;DHT22;26233;51.894;10.192;2023-05-07T11:02:07;16.70;46.50
40534;DHT22;26233;51.894;10.192;2023-05-07T11:04:37;16.80;46.70
40534;DHT22;26233;51.894;10.192;2023-05-07T11:07:29;16.90;46.60
40534;DHT22;26233;51.894;10.192;2023-05-07T11:10:04;17.10;46.60
40534;DHT22;26233;51.894;10.192;2023-05-07T11:12:51;17.20;46.60
40534;DHT22;26233;51.894;10.192;2023-05-07T11:15:39;17.30;46.20
40534;DHT22;26233;51.894;10.192;2023-05-07T11:18:10;17.50;46.40
40534;DHT22;26233;51.894;10.192;2023-05-07T11:20:58;17.60;46.50
40534;DHT22;26233;51.894;10.192;2023-05-07T11:23:57;17.70;46.30
40534;DHT22;26233;51.894;10.192;2023-05-07T11:26:26;17.80;46.20
40534;DHT22;26233;51.894;10.192;2023-05-07T11:28:56;17.90;46.40
40534;DHT22;26233;51.894;10.192;2023-05-07T11:31:27;18.00;46.30
40534;DHT22;26233;51.894;10.192;2023-05-07T11:33:55;18.10;46.30
40534;DHT22;26233;51.894;10.192;2023-05-07T11:36:23;18.20;46.20
40534;DHT22;26233;51.894;10.192;2023-05-07T11:38:51;18.40;46.30
40534;DHT22;26233;51.894;10.192;2023-05-07T11:41:18;18.40;46.10
40534;DHT22;26233;51.894;10.192;2023-05-07T11:44:00;18.60;46.20
40534;DHT22;26233;51.894;10.192;2023-05-07T11:46:28;18.60;45.80
40534;DHT22;26233;51.894;10.192;2023-05-07T11:48:55;18.80;46.20
40534;DHT22;26233;51.894;10.192;2023-05-07T11:51:24;18.90;46.00
40534;DHT22;26233;51.894;10.192;2023-05-07T11:53:53;18.90;45.60
40534;DHT22;26233;51.894;10.192;2023-05-07T11:56:20;19.00;45.50
40534;DHT22;26233;51.894;10.192;2023-05-07T11:58:47;19.00;45.20
40534;DHT22;26233;51.894;10.192;2023-05-07T12:01:17;19.00;44.90
40534;DHT22;26233;51.894;10.192;2023-05-07T12:03:46;19.00;44.70
40534;DHT22;26233;51.894;10.192;2023-05-07T12:06:14;18.90;44.60
40534;DHT22;26233;51.894;10.192;2023-05-07T12:08:43;18.90;44.50
40534;DHT22;26233;51.894;10.192;2023-05-07T12:11:14;18.80;44.30
40534;DHT22;26233;51.894;10.192;2023-05-07T12:13:43;18.70;44.20
40534;DHT22;26233;51.894;10.192;2023-05-07T12:16:11;18.70;44.50
40534;DHT22;26233;51.894;10.192;2023-05-07T12:18:40;18.70;44.60
40534;DHT22;26233;51.894;10.192;2023-05-07T12:21:08;18.70;44.50
40534;DHT22;26233;51.894;10.192;2023-05-07T12:23:36;18.70;44.60
40534;DHT22;26233;51.894;10.192;2023-05-07T12:26:04;18.70;44.50
40534;DHT22;26233;51.894;10.192;2023-05-07T12:28:36;18.70;44.50
40534;DHT22;26233;51.894;10.192;2023-05-07T12:31:04;18.80;44.50
40534;DHT22;26233;51.894;10.192;2023-05-07T12:33:32;18.80;44.80
40534;DHT22;26233;51.894;10.192;2023-05-07T12:36:07;19.00;45.10
40534;DHT22;26233;51.894;10.192;2023-05-07T12:38:36;19.00;44.70
40534;DHT22;26233;51.894;10.192;2023-05-07T12:41:05;19.20;44.80
40534;DHT22;26233;51.894;10.192;2023-05-07T12:43:33;19.30;44.70
40534;DHT22;26233;51.894;10.192;2023-05-07T12:46:01;19.50;45.00
40534;DHT22;26233;51.894;10.192;2023-05-07T12:48:30;19.60;44.50
40534;DHT22;26233;51.894;10.192;2023-05-07T12:51:00;19.60;44.30
40534;DHT22;26233;51.894;10.192;2023-05-07T12:53:30;19.70;44.30
40534;DHT22;26233;51.894;10.192;2023-05-07T12:55:58;19.80;44.20
40534;DHT22;26233;51.894;10.192;2023-05-07T12:58:27;19.90;44.20
40534;DHT22;26233;51.894;10.192;2023-05-07T13:00:55;20.00;44.00
40534;DHT22;26233;51.894;10.192;2023-05-07T13:03:26;20.10;44.00
40534;DHT22;26233;51.894;10.192;2023-05-07T13:05:55;20.20;44.00
40534;DHT22;26233;51.894;10.192;2023-05-07T13:08:25;20.20;44.00
40534;DHT22;26233;51.894;10.192;2023-05-07T13:10:57;20.30;44.00
40534;DHT22;26233;51.894;10.192;2023-05-07T13:13:25;20.40;43.80
40534;DHT22;26233;51.894;10.192;2023-05-07T13:15:52;20.50;43.70
40534;DHT22;26233;51.894;10.192;2023-05-07T13:18:19;20.60;44.00
40534;DHT22;26233;51.894;10.192;2023-05-07T13:20:46;20.80;43.90
40534;DHT22;26233;51.894;10.192;2023-05-07T13:23:13;20.90;43.50
40534;DHT22;26233;51.894;10.192;2023-05-07T13:25:40;21.00;43.00
40534;DHT22;26233;51.894;10.192;2023-05-07T13:28:08;21.00;42.70
40534;DHT22;26233;51.894;10.192;2023-05-07T13:30:35;21.00;42.80
40534;DHT22;26233;51.894;10.192;2023-05-07T13:33:02;21.00;42.80
40534;DHT22;26233;51.894;10.192;2023-05-07T13:35:30;21.00;42.80
40534;DHT22;26233;51.894;10.192;2023-05-07T13:37:57;21.10;42.80
40534;DHT22;26233;51.894;10.192;2023-05-07T13:40:24;21.10;42.30
40534;DHT22;26233;51.894;10.192;2023-05-07T13:42:51;21.10;42.10
40534;DHT22;26233;51.894;10.192;2023-05-07T13:45:20;21.10;42.30
40534;DHT22;26233;51.894;10.192;2023-05-07T13:47:47;21.10;42.20
40534;DHT22;26233;51.894;10.192;2023-05-07T13:50:15;21.10;42.60
40534;DHT22;26233;51.894;10.192;2023-05-07T13:52:43;21.00;41.70
40534;DHT22;26233;51.894;10.192;2023-05-07T13:55:15;21.00;41.80
40534;DHT22;26233;51.894;10.192;2023-05-07T13:57:43;21.00;41.70
40534;DHT22;26233;51.894;10.192;2023-05-07T14:00:11;20.90;41.60
40534;DHT22;26233;51.894;10.192;2023-05-07T14:02:40;20.90;41.60
40534;DHT22;26233;51.894;10.192;2023-05-07T14:05:08;20.80;41.50
40534;DHT22;26233;51.894;10.192;2023-05-07T14:07:35;20.80;41.60
40534;DHT22;26233;51.894;10.192;2023-05-07T14:10:03;20.80;41.60
40534;DHT22;26233;51.894;10.192;2023-05-07T14:12:31;20.80;41.50
40534;DHT22;26233;51.894;10.192;2023-05-07T14:14:59;20.80;41.60
40534;DHT22;26233;51.894;10.192;2023-05-07T14:17:26;20.80;41.60
40534;DHT22;26233;51.894;10.192;2023-05-07T14:19:54;20.80;41.40
40534;DHT22;26233;51.894;10.192;2023-05-07T14:22:22;20.80;41.30
40534;DHT22;26233;51.894;10.192;2023-05-07T14:24:49;20.80;41.20
40534;DHT22;26233;51.894;10.192;2023-05-07T14:27:16;20.80;41.10
40534;DHT22;26233;51.894;10.192;2023-05-07T14:29:43;20.80;41.10
40534;DHT22;26233;51.894;10.192;2023-05-07T14:32:11;20.80;41.20
40534;DHT22;26233;51.894;10.192;2023-05-07T14:34:38;20.80;41.10
40534;DHT22;26233;51.894;10.192;2023-05-07T14:37:07;20.80;40.80
40534;DHT22;26233;51.894;10.192;2023-05-07T14:39:34;20.70;40.40
40534;DHT22;26233;51.894;10.192;2023-05-07T14:42:01;20.50;40.20
40534;DHT22;26233;51.894;10.192;2023-05-07T14:44:31;20.40;40.00
40534;DHT22;26233;51.894;10.192;2023-05-07T14:46:58;20.30;40.00
40534;DHT22;26233;51.894;10.192;2023-05-07T14:49:25;20.10;40.10
40534;DHT22;26233;51.894;10.192;2023-05-07T14:51:52;19.90;40.10
40534;DHT22;26233;51.894;10.192;2023-05-07T14:54:21;19.80;40.10
40534;DHT22;26233;51.894;10.192;2023-05-07T14:56:48;19.70;40.00
40534;DHT22;26233;51.894;10.192;2023-05-07T14:59:15;19.60;40.10
40534;DHT22;26233;51.894;10.192;2023-05-07T15:01:46;19.40;40.20
40534;DHT22;26233;51.894;10.192;2023-05-07T15:04:13;19.30;40.20
40534;DHT22;26233;51.894;10.192;2023-05-07T15:06:41;19.20;40.30
40534;DHT22;26233;51.894;10.192;2023-05-07T15:09:08;19.10;40.40
40534;DHT22;26233;51.894;10.192;2023-05-07T15:11:36;19.10;41.10
40534;DHT22;26233;51.894;10.192;2023-05-07T15:14:03;19.10;40.50
40534;DHT22;26233;51.894;10.192;2023-05-07T15:16:30;19.00;40.50
40534;DHT22;26233;51.894;10.192;2023-05-07T15:18:58;18.90;40.40
40534;DHT22;26233;51.894;10.192;2023-05-07T15:21:25;18.90;40.40
40534;DHT22;26233;51.894;10.192;2023-05-07T15:23:53;18.80;40.40